Time;durP1;ratioP1;P1;durP2;ratioP2;P2;SDS_P1;SDS_P2;PMS_P1;PMS_P2;Temp;Humidity;BMP_temperature;BMP_pressure;BME280_temperature;BME280_humidity;BME280_pressure;Samples;Min_cycle;Max_cycle;Signal;HPM_P1;HPM_P2
2023/07/24 00:01:04;;;;;;;;;;;17.40;99.90;;;;;;5088062;28;20507;-87
2023/07/24 00:03:30;;;;;;;;;;;17.40;99.90;;;;;;5085781;28;19978;-86
2023/07/24 00:05:59;;;;;;;;;;;17.40;99.90;;;;;;5065259;28;19932;-87
2023/07/24 00:08:24;;;;;;;;;;;17.40;99.90;;;;;;5062024;28;19928;-86
2023/07/24 00:10:50;;;;;;;;;;;17.30;99.90;;;;;;5067235;28;19924;-84
2023/07/24 00:13:16;;;;;;;;;;;17.30;99.90;;;;;;5068143;28;20011;-86
2023/07/24 00:15:41;;;;;;;;;;;17.30;99.90;;;;;;5065673;28;19987;-85
2023/07/24 00:18:07;;;;;;;;;;;17.20;99.90;;;;;;5083221;28;20462;-85
2023/07/24 00:20:32;;;;;;;;;;;17.20;99.90;;;;;;5064909;28;20003;-85
2023/07/24 00:22:58;;;;;;;;;;;17.10;99.90;;;;;;5061455;28;19935;-84
2023/07/24 00:25:23;;;;;;;;;;;17.10;99.90;;;;;;5065230;28;19931;-86
2023/07/24 00:27:49;;;;;;;;;;;17.00;99.90;;;;;;5084548;28;19934;-85
2023/07/24 00:30:14;;;;;;;;;;;17.00;99.90;;;;;;5088228;28;19928;-85
2023/07/24 00:32:40;;;;;;;;;;;17.00;99.90;;;;;;5061495;28;19942;-83
2023/07/24 00:35:06;;;;;;;;;;;16.90;99.90;;;;;;5043748;28;19934;-86
2023/07/24 00:37:32;;;;;;;;;;;16.90;99.90;;;;;;5065368;28;19978;-87
2023/07/24 00:39:57;;;;;;;;;;;16.80;99.90;;;;;;5068543;28;19962;-86
2023/07/24 00:42:23;;;;;;;;;;;16.80;99.90;;;;;;5060610;28;19928;-84
2023/07/24 00:44:48;;;;;;;;;;;16.80;99.90;;;;;;5066652;28;19931;-85
2023/07/24 00:47:14;;;;;;;;;;;16.70;99.90;;;;;;5065557;28;20007;-86
2023/07/24 00:49:40;;;;;;;;;;;16.60;99.90;;;;;;5088921;28;19939;-87
2023/07/24 00:52:06;;;;;;;;;;;16.60;99.90;;;;;;5088661;28;19935;-87
2023/07/24 00:54:32;;;;;;;;;;;16.60;99.90;;;;;;5084959;28;19928;-86
2023/07/24 00:56:58;;;;;;;;;;;16.50;99.90;;;;;;5063503;28;20643;-87
2023/07/24 00:59:23;;;;;;;;;;;16.50;99.90;;;;;;5071426;28;20027;-85
2023/07/24 01:01:49;;;;;;;;;;;16.40;99.90;;;;;;5070345;28;19925;-85
2023/07/24 01:04:15;;;;;;;;;;;16.40;99.90;;;;;;5089808;28;19924;-86
2023/07/24 01:06:40;;;;;;;;;;;16.40;99.90;;;;;;5087180;28;19928;-87
2023/07/24 01:09:06;;;;;;;;;;;16.40;99.90;;;;;;5070168;28;19928;-87
2023/07/24 01:11:43;;;;;;;;;;;16.30;99.90;;;;;;5087202;28;19931;-85
2023/07/24 01:14:32;;;;;;;;;;;16.30;99.90;;;;;;5089713;28;20861;-85
2023/07/24 01:16:58;;;;;;;;;;;16.30;99.90;;;;;;5081936;28;19974;-86
2023/07/24 01:19:24;;;;;;;;;;;16.20;99.90;;;;;;5069132;28;19928;-85
2023/07/24 01:22:19;;;;;;;;;;;16.20;99.90;;;;;;5069614;28;19935;-87
2023/07/24 01:24:51;;;;;;;;;;;16.20;99.90;;;;;;5053022;28;19951;-86
2023/07/24 01:27:25;;;;;;;;;;;16.30;99.90;;;;;;5079715;28;19979;-85
2023/07/24 01:29:51;;;;;;;;;;;16.30;99.90;;;;;;5070199;28;19924;-87
2023/07/24 01:32:17;;;;;;;;;;;16.30;99.90;;;;;;5070694;28;19924;-86
2023/07/24 01:34:43;;;;;;;;;;;16.40;99.90;;;;;;5069858;28;19950;-87
2023/07/24 01:37:10;;;;;;;;;;;16.40;99.90;;;;;;5088057;28;19925;-86
2023/07/24 01:39:35;;;;;;;;;;;16.50;99.90;;;;;;5063506;28;19928;-85
2023/07/24 01:42:01;;;;;;;;;;;16.50;99.90;;;;;;5070368;28;20004;-85
2023/07/24 01:44:27;;;;;;;;;;;16.50;99.90;;;;;;5089684;28;19971;-84
2023/07/24 01:46:52;;;;;;;;;;;16.50;99.90;;;;;;5093451;28;19975;-86
2023/07/24 01:49:18;;;;;;;;;;;16.40;99.90;;;;;;5067821;28;19935;-85
2023/07/24 01:51:43;;;;;;;;;;;16.40;99.90;;;;;;5062272;28;19932;-84
2023/07/24 01:54:09;;;;;;;;;;;16.40;99.90;;;;;;5052330;28;19931;-86
2023/07/24 01:56:36;;;;;;;;;;;16.40;99.90;;;;;;5067602;28;20007;-86
2023/07/24 01:59:01;;;;;;;;;;;16.30;99.90;;;;;;5083159;28;20424;-86
2023/07/24 02:01:27;;;;;;;;;;;16.30;99.90;;;;;;5089034;28;20380;-84
2023/07/24 02:03:52;;;;;;;;;;;16.30;99.90;;;;;;5077832;28;19989;-86
2023/07/24 02:06:18;;;;;;;;;;;16.30;99.90;;;;;;5083078;28;19970;-84
2023/07/24 02:08:48;;;;;;;;;;;16.30;99.90;;;;;;5095535;28;19959;-84
2023/07/24 02:11:15;;;;;;;;;;;16.30;99.90;;;;;;5098416;28;19935;-87
2023/07/24 02:13:40;;;;;;;;;;;16.20;99.90;;;;;;5101852;28;19924;-87
2023/07/24 02:16:06;;;;;;;;;;;16.20;99.90;;;;;;5080662;28;19925;-87
2023/07/24 02:18:32;;;;;;;;;;;16.30;99.90;;;;;;5087165;28;19927;-86
2023/07/24 02:20:57;;;;;;;;;;;16.30;99.90;;;;;;5080843;28;19984;-86
2023/07/24 02:23:23;;;;;;;;;;;16.40;99.90;;;;;;5096741;28;19932;-87
2023/07/24 02:25:54;;;;;;;;;;;16.40;99.90;;;;;;5097273;28;19935;-87
2023/07/24 02:28:20;;;;;;;;;;;16.40;99.90;;;;;;5093416;28;19963;-87
2023/07/24 02:30:46;;;;;;;;;;;16.40;99.90;;;;;;5075703;28;19924;-87
2023/07/24 02:33:12;;;;;;;;;;;16.50;99.90;;;;;;5074444;28;20658;-88
2023/07/24 02:35:38;;;;;;;;;;;16.50;99.90;;;;;;5093462;28;19940;-87
2023/07/24 02:38:04;;;;;;;;;;;16.50;99.90;;;;;;5075658;28;19932;-87
2023/07/24 02:40:29;;;;;;;;;;;16.50;99.90;;;;;;5093566;28;19946;-85
2023/07/24 02:42:55;;;;;;;;;;;16.60;99.90;;;;;;5059197;28;19925;-85
2023/07/24 02:45:20;;;;;;;;;;;16.60;99.90;;;;;;5071231;28;19932;-86
2023/07/24 02:47:46;;;;;;;;;;;16.60;99.90;;;;;;5073791;28;20022;-87
2023/07/24 02:50:12;;;;;;;;;;;16.60;99.90;;;;;;5094354;28;19946;-85
2023/07/24 02:52:37;;;;;;;;;;;16.60;99.90;;;;;;5071197;28;19928;-88
2023/07/24 02:55:03;;;;;;;;;;;16.70;99.90;;;;;;5057014;28;20548;-87
2023/07/24 02:57:28;;;;;;;;;;;16.70;99.90;;;;;;5090158;28;20019;-87
2023/07/24 02:59:54;;;;;;;;;;;16.70;99.90;;;;;;5068790;28;19928;-84
2023/07/24 03:02:20;;;;;;;;;;;16.70;99.90;;;;;;5086309;28;20004;-87
2023/07/24 03:04:45;;;;;;;;;;;16.70;99.90;;;;;;5087743;28;19936;-87
2023/07/24 03:07:11;;;;;;;;;;;16.70;99.90;;;;;;5087274;28;19963;-85
2023/07/24 03:09:36;;;;;;;;;;;16.80;99.90;;;;;;5064478;28;19932;-85
2023/07/24 03:12:02;;;;;;;;;;;16.80;99.90;;;;;;5066235;28;19924;-86
2023/07/24 03:14:27;;;;;;;;;;;16.80;99.90;;;;;;5068709;28;19928;-88
2023/07/24 03:16:53;;;;;;;;;;;16.80;99.90;;;;;;5083487;28;19967;-87
2023/07/24 03:19:20;;;;;;;;;;;16.80;99.90;;;;;;5084630;28;19927;-86
2023/07/24 03:21:45;;;;;;;;;;;16.80;99.90;;;;;;5083094;28;20400;-87
2023/07/24 03:24:11;;;;;;;;;;;16.70;99.90;;;;;;5049274;28;19928;-87
2023/07/24 03:26:37;;;;;;;;;;;16.70;99.90;;;;;;5065748;28;19977;-86
2023/07/24 03:29:02;;;;;;;;;;;16.70;99.90;;;;;;5068300;28;19924;-87
2023/07/24 03:31:28;;;;;;;;;;;16.70;99.90;;;;;;5063516;28;19932;-85
2023/07/24 03:33:53;;;;;;;;;;;16.60;99.90;;;;;;5066419;28;19956;-85
2023/07/24 03:36:19;;;;;;;;;;;16.60;99.90;;;;;;5082337;28;20405;-88
2023/07/24 03:38:44;;;;;;;;;;;16.60;99.90;;;;;;5060172;28;20180;-87
2023/07/24 03:41:10;;;;;;;;;;;16.60;99.90;;;;;;5064476;28;19928;-84
2023/07/24 03:43:35;;;;;;;;;;;16.50;99.90;;;;;;5081657;28;19935;-87
2023/07/24 03:46:01;;;;;;;;;;;16.50;99.90;;;;;;5070508;28;19936;-85
2023/07/24 03:48:26;;;;;;;;;;;16.50;99.90;;;;;;5069712;28;20018;-86
2023/07/24 03:50:58;;;;;;;;;;;16.50;99.90;;;;;;5062969;28;19924;-87
2023/07/24 03:53:23;;;;;;;;;;;16.50;99.90;;;;;;5049870;28;19939;-87
2023/07/24 03:55:49;;;;;;;;;;;16.50;99.90;;;;;;5071059;28;19924;-85
2023/07/24 03:58:14;;;;;;;;;;;16.50;99.90;;;;;;5072587;28;19931;-87
2023/07/24 04:00:40;;;;;;;;;;;16.50;99.90;;;;;;5071365;28;19932;-85
2023/07/24 04:03:06;;;;;;;;;;;16.50;99.90;;;;;;5089418;28;19931;-85
2023/07/24 04:05:31;;;;;;;;;;;16.50;99.90;;;;;;5088470;28;19931;-85
2023/07/24 04:07:57;;;;;;;;;;;16.50;99.90;;;;;;5071407;28;19935;-86
2023/07/24 04:10:22;;;;;;;;;;;16.50;99.90;;;;;;5089684;28;19924;-85
2023/07/24 04:12:48;;;;;;;;;;;16.50;99.90;;;;;;5073046;28;20437;-86
2023/07/24 04:15:13;;;;;;;;;;;16.50;99.90;;;;;;5054314;28;19928;-86
2023/07/24 04:17:41;;;;;;;;;;;16.50;99.90;;;;;;5072917;28;19928;-85
2023/07/24 04:20:07;;;;;;;;;;;16.60;99.90;;;;;;5070813;28;19931;-87
2023/07/24 04:22:32;;;;;;;;;;;16.50;99.90;;;;;;5055819;28;19932;-87
2023/07/24 04:24:58;;;;;;;;;;;16.60;99.90;;;;;;5069136;28;20006;-87
2023/07/24 04:27:24;;;;;;;;;;;16.60;99.90;;;;;;5085768;28;20386;-87
2023/07/24 04:29:49;;;;;;;;;;;16.60;99.90;;;;;;5088654;28;19946;-85
2023/07/24 04:32:15;;;;;;;;;;;16.60;99.90;;;;;;5088523;28;19967;-86
2023/07/24 04:34:40;;;;;;;;;;;16.60;99.90;;;;;;5062392;28;20019;-85
2023/07/24 04:37:06;;;;;;;;;;;16.60;99.90;;;;;;5066115;28;19924;-87
2023/07/24 04:39:31;;;;;;;;;;;16.60;99.90;;;;;;5067232;28;19936;-86
2023/07/24 04:41:57;;;;;;;;;;;16.60;99.90;;;;;;5063793;28;20031;-87
2023/07/24 04:44:22;;;;;;;;;;;16.60;99.90;;;;;;5070862;28;19924;-86
2023/07/24 04:46:48;;;;;;;;;;;16.60;99.90;;;;;;5082529;28;20021;-86
2023/07/24 04:49:14;;;;;;;;;;;16.70;99.90;;;;;;5091698;28;19924;-86
2023/07/24 04:51:39;;;;;;;;;;;16.60;99.90;;;;;;5073170;28;19931;-85
2023/07/24 04:54:05;;;;;;;;;;;16.60;99.90;;;;;;5076217;28;19924;-86
2023/07/24 04:56:31;;;;;;;;;;;16.60;99.90;;;;;;5094590;28;19930;-87
2023/07/24 04:58:56;;;;;;;;;;;16.60;99.90;;;;;;5093435;28;19924;-86
2023/07/24 05:01:22;;;;;;;;;;;16.60;99.90;;;;;;5094315;28;19931;-85
2023/07/24 05:03:47;;;;;;;;;;;16.60;99.90;;;;;;5076228;28;19932;-85
2023/07/24 05:06:13;;;;;;;;;;;16.60;99.90;;;;;;5094548;28;20271;-86
2023/07/24 05:08:38;;;;;;;;;;;16.60;99.90;;;;;;5093024;28;19964;-86
2023/07/24 05:11:04;;;;;;;;;;;16.60;99.90;;;;;;5093481;28;20476;-87
2023/07/24 05:13:30;;;;;;;;;;;16.60;99.90;;;;;;5094157;28;19934;-85
2023/07/24 05:15:55;;;;;;;;;;;16.60;99.90;;;;;;5092839;28;20320;-85
2023/07/24 05:18:21;;;;;;;;;;;16.60;99.90;;;;;;5058298;28;20424;-85
2023/07/24 05:20:47;;;;;;;;;;;16.70;99.90;;;;;;5091426;28;20019;-87
2023/07/24 05:23:13;;;;;;;;;;;16.70;99.90;;;;;;5092282;28;20378;-85
2023/07/24 05:25:38;;;;;;;;;;;16.80;99.90;;;;;;5070105;28;19935;-84
2023/07/24 05:28:04;;;;;;;;;;;16.80;99.90;;;;;;5086373;28;20023;-86
2023/07/24 05:30:30;;;;;;;;;;;16.90;99.90;;;;;;5063386;28;19981;-87
2023/07/24 05:32:55;;;;;;;;;;;17.00;99.90;;;;;;5085348;28;19943;-85
2023/07/24 05:35:21;;;;;;;;;;;17.00;99.90;;;;;;5086836;28;19924;-86
2023/07/24 05:37:46;;;;;;;;;;;17.10;99.90;;;;;;5066456;28;19924;-84
2023/07/24 05:40:12;;;;;;;;;;;17.10;99.90;;;;;;5084298;28;19930;-86
2023/07/24 05:42:41;;;;;;;;;;;17.20;99.90;;;;;;5069110;28;19924;-87
2023/07/24 05:45:07;;;;;;;;;;;17.30;99.90;;;;;;5074671;28;19928;-87
2023/07/24 05:47:33;;;;;;;;;;;17.30;99.90;;;;;;5054341;28;19964;-86
2023/07/24 05:49:58;;;;;;;;;;;17.30;99.90;;;;;;5072781;28;19970;-87
2023/07/24 05:52:24;;;;;;;;;;;17.40;99.90;;;;;;5071842;28;20019;-87
2023/07/24 05:54:49;;;;;;;;;;;17.40;99.90;;;;;;5070732;28;19924;-88
2023/07/24 05:57:15;;;;;;;;;;;17.40;99.90;;;;;;5067579;28;20390;-86
2023/07/24 05:59:41;;;;;;;;;;;17.40;99.90;;;;;;5073179;28;19924;-86
2023/07/24 06:02:08;;;;;;;;;;;17.40;99.90;;;;;;5067930;28;19924;-87
2023/07/24 06:04:33;;;;;;;;;;;17.40;99.90;;;;;;5093255;28;19986;-86
2023/07/24 06:06:59;;;;;;;;;;;17.40;99.90;;;;;;5086266;28;19982;-86
2023/07/24 06:09:25;;;;;;;;;;;17.40;99.90;;;;;;5051660;28;19925;-86
2023/07/24 06:11:50;;;;;;;;;;;17.30;99.90;;;;;;5083759;28;19935;-85
2023/07/24 06:14:16;;;;;;;;;;;17.30;99.90;;;;;;5086113;28;20147;-86
2023/07/24 06:16:41;;;;;;;;;;;17.30;99.90;;;;;;5083137;28;19949;-88
2023/07/24 06:19:07;;;;;;;;;;;17.50;99.90;;;;;;5086320;28;19931;-88
2023/07/24 06:21:32;;;;;;;;;;;18.00;99.90;;;;;;5051877;28;20310;-85
2023/07/24 06:23:58;;;;;;;;;;;18.70;99.90;;;;;;5084133;28;19924;-86
2023/07/24 06:26:23;;;;;;;;;;;19.20;99.90;;;;;;5067256;28;19928;-87
2023/07/24 06:28:49;;;;;;;;;;;19.50;99.90;;;;;;5064619;28;20278;-87
2023/07/24 06:31:14;;;;;;;;;;;19.50;99.90;;;;;;5050006;28;19933;-87
2023/07/24 06:33:40;;;;;;;;;;;19.40;99.90;;;;;;5083647;28;20023;-87
2023/07/24 06:36:10;;;;;;;;;;;19.40;99.90;;;;;;5062511;28;19932;-85
2023/07/24 06:38:36;;;;;;;;;;;19.60;99.90;;;;;;5069269;28;19935;-88
2023/07/24 06:41:02;;;;;;;;;;;20.00;99.90;;;;;;5084748;28;19924;-87
2023/07/24 06:43:28;;;;;;;;;;;20.30;99.90;;;;;;5063263;28;19928;-87
2023/07/24 06:45:54;;;;;;;;;;;20.40;99.90;;;;;;5084362;28;19985;-86
2023/07/24 06:48:19;;;;;;;;;;;20.60;99.90;;;;;;5086102;28;19928;-86
2023/07/24 06:50:45;;;;;;;;;;;20.90;99.90;;;;;;5060269;28;19931;-89
2023/07/24 06:53:10;;;;;;;;;;;21.10;99.90;;;;;;5064165;28;20389;-87
2023/07/24 06:55:36;;;;;;;;;;;21.00;99.90;;;;;;5064876;28;19943;-89
2023/07/24 06:58:01;;;;;;;;;;;20.90;99.90;;;;;;5066058;28;19935;-85
2023/07/24 07:00:27;;;;;;;;;;;20.80;99.90;;;;;;5073987;28;20467;-85
2023/07/24 07:02:52;;;;;;;;;;;20.70;99.90;;;;;;5073104;28;19924;-85
2023/07/24 07:05:18;;;;;;;;;;;20.60;99.90;;;;;;5092105;28;19944;-84
2023/07/24 07:07:44;;;;;;;;;;;20.40;99.90;;;;;;5056884;28;19975;-85
2023/07/24 07:10:10;;;;;;;;;;;20.30;99.90;;;;;;5091252;28;20046;-84
2023/07/24 07:12:35;;;;;;;;;;;20.20;99.90;;;;;;5064195;28;21025;-85
2023/07/24 07:15:01;;;;;;;;;;;20.00;99.90;;;;;;5083819;28;19933;-86
2023/07/24 07:17:26;;;;;;;;;;;19.90;99.90;;;;;;5084657;28;20006;-85
2023/07/24 07:19:52;;;;;;;;;;;20.00;99.90;;;;;;5051154;28;20328;-84
2023/07/24 07:22:17;;;;;;;;;;;20.30;99.90;;;;;;5090866;28;19928;-85
2023/07/24 07:24:44;;;;;;;;;;;20.60;99.90;;;;;;5071910;28;19928;-86
2023/07/24 07:27:09;;;;;;;;;;;20.90;99.90;;;;;;5082930;28;19971;-84
2023/07/24 07:29:35;;;;;;;;;;;21.00;99.90;;;;;;5072220;28;20363;-84
2023/07/24 07:32:00;;;;;;;;;;;21.10;99.90;;;;;;5068323;28;19950;-85
2023/07/24 07:34:26;;;;;;;;;;;21.20;99.90;;;;;;5091988;28;20011;-85
2023/07/24 07:36:51;;;;;;;;;;;21.00;99.90;;;;;;5091606;28;20367;-85
2023/07/24 07:39:17;;;;;;;;;;;20.80;99.90;;;;;;5072061;28;19947;-85
2023/07/24 07:41:43;;;;;;;;;;;20.70;99.90;;;;;;5067398;28;19924;-85
2023/07/24 07:44:08;;;;;;;;;;;20.50;99.90;;;;;;5083911;28;20235;-85
2023/07/24 07:46:34;;;;;;;;;;;20.40;99.90;;;;;;5064794;28;19985;-87
2023/07/24 07:48:59;;;;;;;;;;;20.20;99.90;;;;;;5084969;28;20026;-86
2023/07/24 07:51:26;;;;;;;;;;;20.10;99.90;;;;;;5069561;28;19928;-86
2023/07/24 07:53:51;;;;;;;;;;;20.10;99.90;;;;;;5090121;28;19924;-86
2023/07/24 07:56:17;;;;;;;;;;;20.10;99.90;;;;;;5090693;28;19977;-87
2023/07/24 07:58:42;;;;;;;;;;;20.10;99.90;;;;;;5072334;28;19930;-86
2023/07/24 08:01:08;;;;;;;;;;;20.00;99.90;;;;;;5082840;28;19924;-86
2023/07/24 08:03:34;;;;;;;;;;;20.00;99.90;;;;;;5067826;28;19938;-84
2023/07/24 08:06:00;;;;;;;;;;;20.10;99.90;;;;;;5065205;28;19974;-86
2023/07/24 08:08:26;;;;;;;;;;;20.10;99.90;;;;;;5090993;28;20448;-86
2023/07/24 08:10:51;;;;;;;;;;;20.20;99.90;;;;;;5087258;28;20329;-83
2023/07/24 08:13:17;;;;;;;;;;;20.20;99.90;;;;;;5086077;28;20386;-86
2023/07/24 08:15:42;;;;;;;;;;;20.30;99.90;;;;;;5086291;28;19924;-84
2023/07/24 08:18:10;;;;;;;;;;;20.50;99.90;;;;;;5070701;28;20342;-86
2023/07/24 08:20:35;;;;;;;;;;;20.70;99.90;;;;;;5089407;28;20457;-85
2023/07/24 08:23:01;;;;;;;;;;;20.90;99.90;;;;;;5090959;28;19924;-88
2023/07/24 08:25:27;;;;;;;;;;;21.00;99.90;;;;;;5071793;28;19924;-85
2023/07/24 08:27:52;;;;;;;;;;;21.00;99.90;;;;;;5087332;28;19928;-86
2023/07/24 08:30:18;;;;;;;;;;;21.10;99.90;;;;;;5070368;28;19932;-87
2023/07/24 08:32:44;;;;;;;;;;;21.40;99.90;;;;;;5052617;28;20375;-85
2023/07/24 08:35:09;;;;;;;;;;;22.00;99.90;;;;;;5069998;28;19989;-85
2023/07/24 08:37:35;;;;;;;;;;;22.80;99.90;;;;;;5072454;28;20023;-85
2023/07/24 08:40:00;;;;;;;;;;;23.50;99.90;;;;;;5071961;28;19946;-86
2023/07/24 08:42:27;;;;;;;;;;;24.10;99.90;;;;;;5068113;28;19954;-86
2023/07/24 08:44:54;;;;;;;;;;;24.60;99.90;;;;;;5065994;28;19967;-85
2023/07/24 08:47:20;;;;;;;;;;;24.90;99.90;;;;;;5089612;28;20386;-86
2023/07/24 08:49:47;;;;;;;;;;;24.80;99.90;;;;;;5073059;28;19950;-85
2023/07/24 08:52:12;;;;;;;;;;;24.70;99.90;;;;;;5090704;28;20034;-85
2023/07/24 08:54:38;;;;;;;;;;;24.70;99.90;;;;;;5087277;28;20003;-86
2023/07/24 08:57:07;;;;;;;;;;;24.50;99.90;;;;;;5090231;28;19932;-86
2023/07/24 08:59:33;;;;;;;;;;;24.20;99.90;;;;;;5069968;28;20015;-86
2023/07/24 09:01:59;;;;;;;;;;;24.00;99.90;;;;;;5090325;28;20027;-85
2023/07/24 09:04:24;;;;;;;;;;;23.80;99.90;;;;;;5090704;28;20417;-86
2023/07/24 09:06:50;;;;;;;;;;;23.70;99.90;;;;;;5081108;28;19978;-85
2023/07/24 09:09:16;;;;;;;;;;;23.60;99.90;;;;;;5093283;28;20342;-85
2023/07/24 09:12:00;;;;;;;;;;;23.70;99.90;;;;;;5095434;28;19993;-85
2023/07/24 09:14:26;;;;;;;;;;;23.80;99.90;;;;;;5078641;28;19930;-83
2023/07/24 09:17:05;;;;;;;;;;;24.00;99.90;;;;;;5091709;28;19932;-84
2023/07/24 09:19:31;;;;;;;;;;;24.10;99.90;;;;;;5094095;28;19928;-85
2023/07/24 09:22:06;;;;;;;;;;;23.90;99.90;;;;;;5076220;28;20243;-85
2023/07/24 09:24:32;;;;;;;;;;;23.70;99.90;;;;;;5093709;28;19934;-85
2023/07/24 09:26:58;;;;;;;;;;;23.40;99.90;;;;;;5090084;28;19928;-87
2023/07/24 09:29:29;;;;;;;;;;;23.20;99.90;;;;;;5094097;28;19939;-84
2023/07/24 09:31:55;;;;;;;;;;;23.00;99.90;;;;;;5093988;28;19928;-85
2023/07/24 09:34:21;;;;;;;;;;;22.90;99.90;;;;;;5056134;28;20379;-86
2023/07/24 09:36:46;;;;;;;;;;;22.70;99.90;;;;;;5087145;28;20385;-85
2023/07/24 09:39:12;;;;;;;;;;;22.70;99.90;;;;;;5074126;28;19924;-85
2023/07/24 09:41:39;;;;;;;;;;;22.70;99.90;;;;;;5093910;28;19935;-84
2023/07/24 09:44:04;;;;;;;;;;;22.80;99.90;;;;;;5093622;28;19934;-85
2023/07/24 09:46:31;;;;;;;;;;;22.80;99.90;;;;;;5093732;28;19924;-86
2023/07/24 09:48:57;;;;;;;;;;;22.90;99.90;;;;;;5072370;28;20390;-85
2023/07/24 09:51:22;;;;;;;;;;;23.00;99.90;;;;;;5074358;28;19939;-85
2023/07/24 09:54:15;;;;;;;;;;;23.40;99.90;;;;;;5092334;28;20420;-84
2023/07/24 09:56:41;;;;;;;;;;;23.90;99.90;;;;;;5093936;28;20038;-87
2023/07/24 09:59:08;;;;;;;;;;;24.10;99.90;;;;;;5073326;28;19924;-85
2023/07/24 10:01:34;;;;;;;;;;;23.90;99.90;;;;;;5093476;28;19932;-86
2023/07/24 10:04:00;;;;;;;;;;;23.50;99.90;;;;;;5075110;28;19931;-85
2023/07/24 10:06:26;;;;;;;;;;;23.30;99.90;;;;;;5075416;28;20373;-85
2023/07/24 10:08:52;;;;;;;;;;;23.40;99.90;;;;;;5091134;28;19939;-86
2023/07/24 10:11:18;;;;;;;;;;;23.70;99.90;;;;;;5092055;28;19924;-86
2023/07/24 10:13:44;;;;;;;;;;;23.80;99.90;;;;;;5093227;28;20041;-84
2023/07/24 10:16:10;;;;;;;;;;;23.90;99.90;;;;;;5075219;28;19924;-85
2023/07/24 10:18:47;;;;;;;;;;;24.00;99.90;;;;;;5092555;28;19985;-86
2023/07/24 10:21:13;;;;;;;;;;;24.40;99.90;;;;;;5060208;28;19928;-86
2023/07/24 10:23:43;;;;;;;;;;;24.70;99.90;;;;;;5090780;28;19928;-86
2023/07/24 10:26:09;;;;;;;;;;;24.90;99.90;;;;;;5092780;28;19928;-86
2023/07/24 10:28:38;;;;;;;;;;;25.10;99.90;;;;;;5092784;28;19950;-87
2023/07/24 10:31:08;;;;;;;;;;;25.10;99.90;;;;;;5072778;28;19932;-87
2023/07/24 10:33:36;;;;;;;;;;;25.00;99.90;;;;;;5092817;28;20377;-86
2023/07/24 10:36:10;;;;;;;;;;;25.00;99.90;;;;;;5091843;28;19928;-87
2023/07/24 10:38:37;;;;;;;;;;;25.30;99.90;;;;;;5074953;28;19931;-85
2023/07/24 10:41:03;;;;;;;;;;;25.50;99.90;;;;;;5091155;28;19923;-84
2023/07/24 10:43:29;;;;;;;;;;;25.80;99.90;;;;;;5088740;28;20330;-85
2023/07/24 10:45:55;;;;;;;;;;;25.80;99.90;;;;;;5072771;28;19928;-86
2023/07/24 10:48:22;;;;;;;;;;;25.80;99.90;;;;;;5092226;28;19924;-85
2023/07/24 10:50:50;;;;;;;;;;;25.80;99.90;;;;;;5090365;28;19944;-87
2023/07/24 10:53:18;;;;;;;;;;;25.90;99.90;;;;;;5092279;28;20006;-85
2023/07/24 10:55:44;;;;;;;;;;;25.90;99.90;;;;;;5074085;28;19924;-86
2023/07/24 10:58:09;;;;;;;;;;;25.80;99.90;;;;;;5092321;28;19976;-85
2023/07/24 11:00:35;;;;;;;;;;;25.60;99.90;;;;;;5090055;28;19924;-84
2023/07/24 11:03:01;;;;;;;;;;;25.30;99.90;;;;;;5074806;28;19924;-86
2023/07/24 11:05:26;;;;;;;;;;;25.10;99.90;;;;;;5092350;28;19924;-85
2023/07/24 11:07:52;;;;;;;;;;;25.10;99.90;;;;;;5091992;28;20011;-87
2023/07/24 11:10:18;;;;;;;;;;;25.10;99.90;;;;;;5071481;28;19932;-85
2023/07/24 11:12:44;;;;;;;;;;;25.20;99.90;;;;;;5070483;28;19975;-83
2023/07/24 11:15:11;;;;;;;;;;;25.30;99.90;;;;;;5051553;28;19984;-84
2023/07/24 11:17:40;;;;;;;;;;;25.30;99.90;;;;;;5087637;28;19932;-84
2023/07/24 11:20:12;;;;;;;;;;;25.20;99.90;;;;;;5068815;28;20016;-83
2023/07/24 11:22:39;;;;;;;;;;;25.30;99.90;;;;;;5070807;28;20048;-83
2023/07/24 11:25:06;;;;;;;;;;;25.50;99.90;;;;;;5088907;28;19944;-85
2023/07/24 11:27:31;;;;;;;;;;;25.60;99.90;;;;;;5088246;28;19974;-85
2023/07/24 11:29:57;;;;;;;;;;;25.50;99.90;;;;;;5088791;28;19960;-87
2023/07/24 11:32:23;;;;;;;;;;;25.30;99.90;;;;;;5069234;28;19934;-85
2023/07/24 11:34:49;;;;;;;;;;;25.10;99.90;;;;;;5083448;28;19928;-84
2023/07/24 11:37:14;;;;;;;;;;;24.90;99.90;;;;;;5069442;28;19929;-86
2023/07/24 11:39:40;;;;;;;;;;;24.70;99.90;;;;;;5070228;28;19931;-86
2023/07/24 11:42:06;;;;;;;;;;;24.50;99.90;;;;;;5068273;28;20366;-86
2023/07/24 11:44:31;;;;;;;;;;;24.30;99.90;;;;;;5067854;28;19924;-87
2023/07/24 11:47:04;;;;;;;;;;;24.30;99.90;;;;;;5067127;28;19928;-85
2023/07/24 11:49:31;;;;;;;;;;;24.20;99.90;;;;;;5071084;28;20369;-86
2023/07/24 11:52:03;;;;;;;;;;;24.10;99.90;;;;;;5067982;28;19970;-84
2023/07/24 11:54:29;;;;;;;;;;;24.10;99.90;;;;;;5066474;28;19935;-85
2023/07/24 11:56:55;;;;;;;;;;;24.30;99.90;;;;;;5067136;28;20015;-87
2023/07/24 11:59:20;;;;;;;;;;;24.40;99.90;;;;;;5070321;28;20038;-86
2023/07/24 12:01:47;;;;;;;;;;;24.50;99.90;;;;;;5067988;28;19924;-86
2023/07/24 12:04:13;;;;;;;;;;;24.70;99.90;;;;;;5070233;28;19980;-86
2023/07/24 12:06:39;;;;;;;;;;;24.80;99.90;;;;;;5063926;28;19967;-86
2023/07/24 12:09:05;;;;;;;;;;;24.90;99.90;;;;;;5070068;28;19924;-86
2023/07/24 12:11:31;;;;;;;;;;;25.00;99.90;;;;;;5069743;28;19975;-86
2023/07/24 12:13:57;;;;;;;;;;;25.10;99.90;;;;;;5072696;28;19931;-87
2023/07/24 12:16:22;;;;;;;;;;;25.00;99.90;;;;;;5072697;28;20042;-88
2023/07/24 12:18:48;;;;;;;;;;;25.00;99.90;;;;;;5069680;28;19928;-88
2023/07/24 12:21:14;;;;;;;;;;;25.00;99.90;;;;;;5068271;28;19928;-86
2023/07/24 12:23:39;;;;;;;;;;;24.90;99.90;;;;;;5062257;28;19924;-86
2023/07/24 12:26:05;;;;;;;;;;;24.80;99.90;;;;;;5071170;28;19931;-87
2023/07/24 12:28:31;;;;;;;;;;;24.70;99.90;;;;;;5070921;28;19928;-85
2023/07/24 12:30:56;;;;;;;;;;;24.70;99.90;;;;;;5069706;28;20507;-87
2023/07/24 12:33:23;;;;;;;;;;;24.80;99.90;;;;;;5067839;28;19924;-88
2023/07/24 12:35:52;;;;;;;;;;;24.90;99.90;;;;;;5068733;28;20294;-86
2023/07/24 12:38:18;;;;;;;;;;;24.90;99.90;;;;;;5090951;28;19928;-87
2023/07/24 12:40:44;;;;;;;;;;;24.70;99.90;;;;;;5090388;28;19936;-87
2023/07/24 12:43:09;;;;;;;;;;;24.50;99.90;;;;;;5072347;28;19924;-85
2023/07/24 12:45:35;;;;;;;;;;;24.20;99.90;;;;;;5078560;28;19924;-87
2023/07/24 12:48:01;;;;;;;;;;;23.90;99.90;;;;;;5073670;28;19924;-88
2023/07/24 12:50:26;;;;;;;;;;;23.70;99.90;;;;;;5073255;28;20289;-89
2023/07/24 12:52:52;;;;;;;;;;;23.50;99.90;;;;;;5094799;28;19946;-85
2023/07/24 12:55:17;;;;;;;;;;;23.30;99.90;;;;;;5076160;28;19927;-84
2023/07/24 12:57:44;;;;;;;;;;;23.20;99.90;;;;;;5073814;28;19928;-85
2023/07/24 13:00:10;;;;;;;;;;;23.20;99.90;;;;;;5094614;28;19928;-85
2023/07/24 13:02:35;;;;;;;;;;;23.40;99.90;;;;;;5076697;28;19935;-87
2023/07/24 13:05:01;;;;;;;;;;;23.50;99.90;;;;;;5076752;28;20647;-86
2023/07/24 13:07:27;;;;;;;;;;;23.50;99.90;;;;;;5058377;28;19931;-86
2023/07/24 13:09:52;;;;;;;;;;;23.40;99.90;;;;;;5090588;28;19924;-85
2023/07/24 13:12:18;;;;;;;;;;;23.30;99.90;;;;;;5093480;28;19931;-86
2023/07/24 13:14:43;;;;;;;;;;;23.20;99.90;;;;;;5059297;28;19993;-86
2023/07/24 13:17:09;;;;;;;;;;;23.00;99.90;;;;;;5076660;28;19963;-86
2023/07/24 13:19:35;;;;;;;;;;;22.80;99.90;;;;;;5074207;28;20022;-85
2023/07/24 13:22:00;;;;;;;;;;;22.40;99.90;;;;;;5092267;28;19924;-85
2023/07/24 13:24:26;;;;;;;;;;;22.20;99.90;;;;;;5091662;28;19932;-86
2023/07/24 13:26:51;;;;;;;;;;;22.00;99.90;;;;;;5072727;28;19924;-89
2023/07/24 13:29:17;;;;;;;;;;;21.80;99.90;;;;;;5072573;28;19928;-90
2023/07/24 13:31:43;;;;;;;;;;;21.50;99.90;;;;;;5050804;28;20329;-89
2023/07/24 13:34:08;;;;;;;;;;;21.20;99.90;;;;;;5057077;28;19998;-87
2023/07/24 13:36:34;;;;;;;;;;;21.10;99.90;;;;;;5072693;28;20697;-87
2023/07/24 13:38:59;;;;;;;;;;;20.80;99.90;;;;;;5073515;28;19941;-89
2023/07/24 13:41:25;;;;;;;;;;;20.50;99.90;;;;;;5091663;28;20295;-90
2023/07/24 13:43:50;;;;;;;;;;;20.30;99.90;;;;;;5090353;28;19924;-88
2023/07/24 13:46:16;;;;;;;;;;;20.10;99.90;;;;;;5088038;28;19936;-90
2023/07/24 13:48:42;;;;;;;;;;;19.90;99.90;;;;;;5068388;28;20299;-89
2023/07/24 13:51:07;;;;;;;;;;;19.80;99.90;;;;;;5067153;28;19924;-88
2023/07/24 13:53:33;;;;;;;;;;;19.70;99.90;;;;;;5050826;28;19930;-88
2023/07/24 13:55:58;;;;;;;;;;;19.60;99.90;;;;;;5050770;28;19932;-88
2023/07/24 13:58:24;;;;;;;;;;;19.50;99.90;;;;;;5054262;28;20302;-87
2023/07/24 14:00:49;;;;;;;;;;;19.40;99.90;;;;;;5069643;28;19930;-87
2023/07/24 14:03:15;;;;;;;;;;;19.30;99.90;;;;;;5067565;28;19931;-88
2023/07/24 14:05:41;;;;;;;;;;;19.30;99.90;;;;;;5066304;28;19924;-88
2023/07/24 14:08:06;;;;;;;;;;;19.30;99.90;;;;;;5085008;28;20006;-88
2023/07/24 14:10:32;;;;;;;;;;;19.30;99.90;;;;;;5073515;28;19924;-88